createdAt,value
2023-05-11T00:00:38.360Z,6.03
2023-05-11T00:03:05.034Z,6.95
2023-05-11T00:05:31.691Z,5.85
2023-05-11T00:07:58.207Z,7.43
2023-05-11T00:10:24.753Z,6.38
2023-05-11T00:12:51.245Z,6.68
2023-05-11T00:15:17.806Z,6.93
2023-05-11T00:17:44.418Z,6.75
2023-05-11T00:20:11.300Z,7.15
2023-05-11T00:22:37.856Z,6.25
2023-05-11T00:25:04.742Z,7.18
2023-05-11T00:27:31.235Z,7.00
2023-05-11T00:29:57.765Z,7.70
2023-05-11T00:32:24.332Z,7.82
2023-05-11T00:34:50.856Z,7.90
2023-05-11T00:37:17.396Z,7.95
2023-05-11T00:39:43.873Z,7.63
2023-05-11T00:42:10.810Z,8.35
2023-05-11T00:44:37.356Z,8.48
2023-05-11T00:47:04.030Z,7.78
2023-05-11T00:49:30.746Z,7.68
2023-05-11T00:51:57.417Z,8.25
2023-05-11T00:54:24.493Z,7.03
2023-05-11T00:56:50.993Z,8.13
2023-05-11T00:59:18.004Z,7.15
2023-05-11T01:01:44.679Z,7.85
2023-05-11T01:04:11.367Z,8.02
2023-05-11T01:06:56.666Z,8.05
2023-05-11T01:09:41.073Z,7.28
2023-05-11T01:12:27.947Z,8.30
2023-05-11T01:15:12.393Z,8.45
2023-05-11T01:17:48.929Z,7.18
2023-05-11T01:20:21.339Z,8.25
2023-05-11T01:23:27.249Z,7.75
2023-05-11T01:26:15.473Z,8.18
2023-05-11T01:28:57.149Z,9.32
2023-05-11T01:31:28.695Z,9.73
2023-05-11T01:34:09.570Z,8.43
2023-05-11T01:36:42.785Z,8.95
2023-05-11T01:39:11.959Z,8.65
2023-05-11T01:41:41.674Z,7.95
2023-05-11T01:47:40.376Z,8.88
2023-05-11T01:50:08.541Z,9.02
2023-05-11T01:52:38.475Z,9.07
2023-05-11T01:55:07.186Z,9.10
2023-05-11T01:57:36.655Z,9.20
2023-05-11T02:00:03.541Z,9.32
2023-05-11T02:02:31.257Z,9.00
2023-05-11T02:05:00.609Z,10.65
2023-05-11T02:07:28.275Z,10.40
2023-05-11T02:09:56.362Z,10.80
2023-05-11T02:12:25.417Z,10.90
2023-05-11T02:14:52.983Z,10.20
2023-05-11T02:17:21.952Z,10.43
2023-05-11T02:19:49.778Z,11.30
2023-05-11T02:22:17.673Z,10.60
2023-05-11T02:24:44.780Z,11.63
2023-05-11T02:27:11.341Z,10.50
2023-05-11T02:29:37.846Z,11.35
2023-05-11T02:32:09.591Z,11.75
2023-05-11T02:34:41.124Z,11.00
2023-05-11T02:37:12.416Z,11.35
2023-05-11T02:39:43.927Z,11.63
2023-05-11T02:42:22.123Z,11.15
2023-05-11T02:44:57.789Z,11.52
2023-05-11T02:49:57.370Z,11.52
2023-05-11T02:52:26.862Z,11.43
2023-05-11T02:54:54.423Z,12.57
2023-05-11T02:57:21.227Z,11.55
2023-05-11T02:59:47.952Z,12.88
2023-05-11T03:02:14.558Z,13.60
2023-05-11T03:04:41.156Z,12.55
2023-05-11T03:07:08.603Z,12.43
2023-05-11T03:09:35.335Z,12.50
2023-05-11T03:12:03.420Z,12.68
2023-05-11T03:14:33.617Z,12.77
2023-05-11T03:17:01.094Z,12.35
2023-05-11T03:19:29.142Z,13.15
2023-05-11T03:21:58.485Z,11.98
2023-05-11T03:24:25.934Z,12.05
2023-05-11T03:26:54.933Z,13.68
2023-05-11T03:29:22.488Z,13.43
2023-05-11T03:31:51.126Z,13.48
2023-05-11T03:34:18.057Z,13.77
2023-05-11T03:36:47.803Z,12.40
2023-05-11T03:39:16.068Z,12.23
2023-05-11T03:41:45.035Z,11.93
2023-05-11T03:44:13.823Z,12.82
2023-05-11T03:46:41.639Z,13.05
2023-05-11T03:49:10.249Z,14.07
2023-05-11T03:51:39.740Z,13.15
2023-05-11T03:54:06.479Z,12.70
2023-05-11T03:56:36.401Z,12.65
2023-05-11T04:01:31.330Z,12.60
2023-05-11T04:03:57.959Z,13.07
2023-05-11T04:06:24.608Z,13.93
2023-05-11T04:08:51.107Z,13.00
2023-05-11T04:11:17.705Z,12.52
2023-05-11T04:13:44.263Z,14.60
2023-05-11T04:16:10.833Z,13.52
2023-05-11T04:18:37.509Z,12.75
2023-05-11T04:21:04.271Z,13.32
2023-05-11T04:23:30.812Z,13.18
2023-05-11T04:25:57.363Z,14.35
2023-05-11T04:28:23.852Z,12.80
2023-05-11T04:30:59.499Z,11.55
2023-05-11T04:33:26.150Z,11.88
2023-05-11T04:35:54.126Z,12.15
2023-05-11T04:38:22.039Z,10.80
2023-05-11T04:40:48.798Z,11.80
2023-05-11T04:43:15.353Z,10.93
2023-05-11T04:45:42.209Z,11.85
2023-05-11T04:48:08.691Z,11.75
2023-05-11T04:50:36.825Z,11.35
2023-05-11T04:53:03.338Z,10.73
2023-05-11T04:55:29.829Z,11.43
2023-05-11T04:57:56.339Z,10.85
2023-05-11T05:00:23.067Z,10.43
2023-05-11T05:02:49.661Z,11.45
2023-05-11T05:05:16.402Z,11.05
2023-05-11T05:07:42.898Z,10.80
2023-05-11T05:10:09.783Z,9.93
2023-05-11T05:12:36.357Z,10.75
2023-05-11T05:15:04.029Z,10.30
2023-05-11T05:17:30.553Z,10.95
2023-05-11T05:19:57.212Z,11.35
2023-05-11T05:22:24.518Z,11.43
2023-05-11T05:24:51.038Z,10.38
2023-05-11T05:27:17.652Z,11.38
2023-05-11T05:29:44.180Z,10.70
2023-05-11T05:32:10.706Z,11.13
2023-05-11T05:34:37.216Z,11.20
2023-05-11T05:37:03.748Z,11.85
2023-05-11T05:39:30.234Z,10.68
2023-05-11T05:41:56.742Z,9.93
2023-05-11T05:44:23.309Z,10.90
2023-05-11T05:46:49.847Z,11.73
2023-05-11T05:49:16.352Z,11.32
2023-05-11T05:51:42.962Z,12.35
2023-05-11T05:54:09.650Z,11.90
2023-05-11T05:56:36.136Z,11.57
2023-05-11T05:59:02.699Z,12.07
2023-05-11T06:01:29.268Z,11.20
2023-05-11T06:03:55.937Z,12.23
2023-05-11T06:06:22.648Z,11.45
2023-05-11T06:08:49.131Z,12.32
2023-05-11T06:11:15.600Z,11.18
2023-05-11T06:13:42.125Z,11.43
2023-05-11T06:16:08.605Z,11.45
2023-05-11T06:18:35.725Z,13.52
2023-05-11T06:21:02.296Z,12.07
2023-05-11T06:23:28.816Z,12.45
2023-05-11T06:25:55.294Z,12.23
2023-05-11T06:28:21.792Z,13.65
2023-05-11T06:30:48.319Z,12.40
2023-05-11T06:33:14.800Z,12.50
2023-05-11T06:35:41.328Z,12.50
2023-05-11T06:38:07.862Z,13.82
2023-05-11T06:40:34.346Z,13.65
2023-05-11T06:43:00.848Z,11.20
2023-05-11T06:45:27.431Z,12.02
2023-05-11T06:47:53.979Z,12.18
2023-05-11T06:50:21.608Z,13.27
2023-05-11T06:52:48.496Z,13.10
2023-05-11T06:55:15.031Z,13.23
2023-05-11T06:57:41.515Z,11.05
2023-05-11T07:00:08.670Z,12.10
2023-05-11T07:02:35.234Z,12.13
2023-05-11T07:05:01.803Z,11.45
2023-05-11T07:07:28.375Z,11.82
2023-05-11T07:09:55.092Z,11.02
2023-05-11T07:12:21.630Z,11.23
2023-05-11T07:14:48.109Z,10.32
2023-05-11T07:17:14.596Z,11.23
2023-05-11T07:19:41.107Z,11.63
2023-05-11T07:22:07.655Z,10.98
2023-05-11T07:24:34.154Z,9.93
2023-05-11T07:27:00.654Z,9.27
2023-05-11T07:29:27.326Z,8.68
2023-05-11T07:31:53.957Z,8.57
2023-05-11T07:34:20.578Z,9.43
2023-05-11T07:36:47.066Z,8.40
2023-05-11T07:39:13.582Z,8.52
2023-05-11T07:41:40.113Z,9.02
2023-05-11T07:44:06.601Z,8.98
2023-05-11T07:46:33.146Z,8.98
2023-05-11T07:49:11.413Z,9.15
2023-05-11T07:51:42.129Z,8.85
2023-05-11T07:54:08.737Z,9.07
2023-05-11T07:56:35.279Z,9.68
2023-05-11T07:59:01.831Z,10.00
2023-05-11T08:01:28.361Z,9.10
2023-05-11T08:03:54.928Z,9.30
2023-05-11T08:06:21.616Z,9.68
2023-05-11T08:08:48.165Z,8.43
2023-05-11T08:11:14.795Z,9.68
2023-05-11T08:13:41.345Z,9.98
2023-05-11T08:16:09.192Z,9.02
2023-05-11T08:18:36.020Z,8.88
2023-05-11T08:21:02.599Z,9.25
2023-05-11T08:23:29.132Z,9.30
2023-05-11T08:25:55.824Z,9.27
2023-05-11T08:28:22.757Z,8.95
2023-05-11T08:30:56.510Z,9.45
2023-05-11T08:35:55.890Z,8.13
2023-05-11T08:38:22.505Z,8.43
2023-05-11T08:40:51.372Z,8.30
2023-05-11T08:43:19.089Z,7.95
2023-05-11T08:45:46.613Z,8.07
2023-05-11T08:48:13.967Z,8.88
2023-05-11T08:50:40.581Z,8.60
2023-05-11T08:53:07.330Z,7.47
2023-05-11T08:55:34.026Z,7.40
2023-05-11T08:58:02.849Z,7.80
2023-05-11T09:00:30.704Z,7.35
2023-05-11T09:02:58.236Z,7.57
2023-05-11T09:05:25.960Z,7.70
2023-05-11T09:07:54.785Z,8.00
2023-05-11T09:10:21.421Z,7.63
2023-05-11T09:12:47.929Z,7.63
2023-05-11T09:15:14.491Z,7.75
2023-05-11T09:17:41.027Z,8.63
2023-05-11T09:20:08.421Z,8.43
2023-05-11T09:22:46.399Z,7.38
2023-05-11T09:25:14.420Z,7.95
2023-05-11T09:27:44.848Z,8.93
2023-05-11T09:30:22.055Z,8.20
2023-05-11T09:33:01.692Z,7.70
2023-05-11T09:35:33.915Z,7.35
2023-05-11T09:38:04.915Z,9.10
2023-05-11T09:40:34.792Z,9.45
2023-05-11T09:43:02.767Z,8.48
2023-05-11T09:45:49.178Z,7.85
2023-05-11T09:48:21.514Z,10.07
2023-05-11T09:50:49.497Z,8.57
2023-05-11T09:53:16.082Z,9.73
2023-05-11T09:55:53.497Z,8.98
2023-05-11T09:58:20.068Z,10.07
2023-05-11T10:00:53.829Z,10.43
2023-05-11T10:03:20.892Z,10.00
2023-05-11T10:06:00.952Z,10.77
2023-05-11T10:08:29.128Z,9.20
2023-05-11T10:10:56.730Z,10.18
2023-05-11T10:13:24.528Z,8.95
2023-05-11T10:15:52.365Z,10.27
2023-05-11T10:18:20.551Z,9.75
2023-05-11T10:20:47.617Z,9.02
2023-05-11T10:23:15.066Z,9.02
2023-05-11T10:25:42.502Z,9.82
2023-05-11T10:28:10.329Z,10.05
2023-05-11T10:30:37.543Z,9.73
2023-05-11T10:33:06.171Z,9.18
2023-05-11T10:35:32.846Z,10.18
2023-05-11T10:38:01.105Z,9.57
2023-05-11T10:40:27.923Z,8.90
2023-05-11T10:43:19.371Z,10.93
2023-05-11T10:46:08.563Z,10.40
2023-05-11T10:49:16.518Z,10.45
2023-05-11T10:52:03.484Z,10.43
2023-05-11T10:54:59.980Z,9.93
2023-05-11T10:57:41.601Z,9.95
2023-05-11T11:00:20.697Z,10.27
2023-05-11T11:02:48.311Z,10.93
2023-05-11T11:05:31.900Z,9.65
2023-05-11T11:07:59.912Z,9.68
2023-05-11T11:10:35.409Z,8.40
2023-05-11T11:18:21.238Z,9.48
2023-05-11T11:20:53.077Z,9.80
2023-05-11T11:23:49.293Z,9.73
2023-05-11T11:26:49.188Z,9.65
2023-05-11T11:29:16.381Z,9.55
2023-05-11T11:31:43.069Z,10.57
2023-05-11T11:34:27.816Z,9.65
2023-05-11T11:36:57.203Z,9.77
2023-05-11T11:39:25.635Z,9.13
2023-05-11T11:42:06.293Z,8.90
2023-05-11T11:44:34.494Z,9.18
2023-05-11T11:47:21.345Z,8.65
2023-05-11T11:49:50.682Z,9.60
2023-05-11T11:52:29.464Z,8.40
2023-05-11T11:54:57.595Z,8.30
2023-05-11T11:57:30.160Z,8.63
2023-05-11T11:59:56.937Z,8.43
2023-05-11T12:02:24.162Z,7.40
2023-05-11T12:05:22.324Z,8.60
2023-05-11T12:07:51.380Z,7.43
2023-05-11T12:10:19.931Z,6.47
2023-05-11T12:12:51.606Z,7.35
2023-05-11T12:15:29.096Z,8.00
2023-05-11T12:17:56.644Z,7.55
2023-05-11T12:20:24.077Z,7.93
2023-05-11T12:22:50.655Z,7.38
2023-05-11T12:25:19.235Z,7.18
2023-05-11T12:27:51.796Z,8.30
2023-05-11T12:30:22.565Z,7.85
2023-05-11T12:32:49.167Z,6.88
2023-05-11T12:35:24.380Z,7.75
2023-05-11T12:37:51.214Z,7.85
2023-05-11T12:40:18.285Z,7.47
2023-05-11T12:42:56.061Z,8.02
2023-05-11T12:45:23.576Z,7.00
2023-05-11T12:47:55.912Z,6.65
2023-05-11T12:50:22.806Z,6.68
2023-05-11T12:52:49.620Z,7.75
2023-05-11T12:55:30.275Z,7.72
2023-05-11T12:58:14.589Z,6.85
2023-05-11T13:00:58.216Z,6.82
2023-05-11T13:03:30.331Z,6.65
2023-05-11T13:06:11.751Z,7.53
2023-05-11T13:08:40.078Z,7.07
2023-05-11T13:11:23.987Z,7.82
2023-05-11T13:13:51.685Z,6.90
2023-05-11T13:16:33.989Z,6.78
2023-05-11T13:19:05.362Z,6.78
2023-05-11T13:21:32.553Z,6.72
2023-05-11T13:23:59.870Z,7.32
2023-05-11T13:26:28.751Z,7.03
2023-05-11T13:29:08.782Z,6.97
2023-05-11T13:31:48.095Z,6.15
2023-05-11T13:34:14.961Z,7.35
2023-05-11T13:36:42.131Z,6.25
2023-05-11T13:39:09.137Z,6.70
2023-05-11T13:41:35.685Z,6.22
2023-05-11T13:44:02.713Z,5.70
2023-05-11T13:46:29.423Z,7.22
2023-05-11T13:48:56.058Z,6.38
2023-05-11T13:51:22.947Z,6.28
2023-05-11T13:53:49.502Z,5.45
2023-05-11T13:56:16.156Z,5.85
2023-05-11T13:58:42.660Z,5.88
2023-05-11T14:01:09.221Z,6.20
2023-05-11T14:03:35.834Z,6.63
2023-05-11T14:06:03.041Z,6.03
2023-05-11T14:08:29.560Z,6.88
2023-05-11T14:10:56.149Z,6.00
2023-05-11T14:13:22.719Z,6.35
2023-05-11T14:15:49.245Z,6.22
2023-05-11T14:18:15.873Z,5.10
2023-05-11T14:20:43.335Z,5.70
2023-05-11T14:23:09.866Z,5.07
2023-05-11T14:25:36.375Z,5.20
2023-05-11T14:28:02.933Z,5.43
2023-05-11T14:30:29.506Z,5.40
2023-05-11T14:32:56.140Z,5.57
2023-05-11T14:35:22.715Z,5.53
2023-05-11T14:37:49.317Z,5.78
2023-05-11T14:40:15.829Z,5.18
2023-05-11T14:42:42.369Z,5.63
2023-05-11T14:45:09.475Z,5.63
2023-05-11T14:47:36.026Z,5.95
2023-05-11T14:50:02.634Z,4.93
2023-05-11T14:52:29.256Z,5.47
2023-05-11T14:54:55.746Z,5.65
2023-05-11T14:57:22.451Z,5.25
2023-05-11T14:59:58.873Z,5.60
2023-05-11T15:02:26.545Z,5.25
2023-05-11T15:04:53.112Z,4.68
2023-05-11T15:07:19.640Z,4.60
2023-05-11T15:09:46.124Z,5.43
2023-05-11T15:12:12.675Z,5.45
2023-05-11T15:14:39.200Z,5.25
2023-05-11T15:17:05.818Z,5.07
2023-05-11T15:19:32.494Z,5.90
2023-05-11T15:21:58.992Z,5.00
2023-05-11T15:24:25.500Z,6.43
2023-05-11T15:26:52.015Z,6.53
2023-05-11T15:29:18.536Z,5.43
2023-05-11T15:31:45.147Z,6.35
2023-05-11T15:34:11.714Z,6.68
2023-05-11T15:36:38.721Z,6.13
2023-05-11T15:39:05.209Z,5.78
2023-05-11T15:41:31.700Z,5.07
2023-05-11T15:43:58.164Z,5.35
2023-05-11T15:46:24.865Z,5.10
2023-05-11T15:48:51.448Z,4.55
2023-05-11T15:51:18.140Z,5.10
2023-05-11T15:53:44.760Z,4.55
2023-05-11T15:56:12.146Z,5.15
2023-05-11T15:58:38.641Z,4.82
2023-05-11T16:01:05.221Z,4.90
2023-05-11T16:03:32.073Z,4.70
2023-05-11T16:05:58.930Z,4.43
2023-05-11T16:08:25.435Z,5.40
2023-05-11T16:10:51.985Z,5.65
2023-05-11T16:13:18.574Z,5.70
2023-05-11T16:15:45.135Z,5.80
2023-05-11T16:18:11.752Z,5.82
2023-05-11T16:20:38.398Z,5.72
2023-05-11T16:23:05.008Z,6.07
2023-05-11T16:25:31.601Z,5.47
2023-05-11T16:27:58.123Z,5.40
2023-05-11T16:30:25.738Z,5.75
2023-05-11T16:32:53.604Z,6.05
2023-05-11T16:35:20.451Z,5.93
2023-05-11T16:37:47.051Z,5.97
2023-05-11T16:40:13.678Z,6.20
2023-05-11T16:42:40.258Z,5.40
2023-05-11T16:45:07.208Z,5.57
2023-05-11T16:47:33.894Z,6.00
2023-05-11T16:50:00.515Z,6.43
2023-05-11T16:52:27.054Z,6.95
2023-05-11T16:54:53.641Z,6.20
2023-05-11T16:57:20.179Z,6.43
2023-05-11T16:59:46.699Z,5.70
2023-05-11T17:02:13.233Z,6.13
2023-05-11T17:04:39.787Z,6.28
2023-05-11T17:07:06.385Z,6.20
2023-05-11T17:09:32.979Z,6.65
2023-05-11T17:11:59.522Z,6.30
2023-05-11T17:14:26.067Z,6.82
2023-05-11T17:16:52.652Z,7.35
2023-05-11T17:19:19.185Z,7.57
2023-05-11T17:21:45.776Z,7.97
2023-05-11T17:24:12.377Z,8.63
2023-05-11T17:26:47.818Z,8.93
2023-05-11T17:29:16.134Z,9.90
2023-05-11T17:31:42.914Z,10.38
2023-05-11T17:34:10.022Z,10.32
2023-05-11T17:36:36.779Z,10.23
2023-05-11T17:39:03.399Z,10.77
2023-05-11T17:41:29.933Z,11.57
2023-05-11T17:43:56.712Z,11.43
2023-05-11T17:46:23.330Z,12.07
2023-05-11T17:48:49.931Z,12.15
2023-05-11T17:51:16.477Z,12.02
2023-05-11T17:53:42.977Z,10.80
2023-05-11T17:56:09.461Z,12.35
2023-05-11T17:58:35.954Z,12.00
2023-05-11T18:01:12.831Z,12.23
2023-05-11T18:03:40.104Z,12.52
2023-05-11T18:06:07.466Z,11.90
2023-05-11T18:08:34.557Z,12.70
2023-05-11T18:11:01.103Z,13.65
2023-05-11T18:13:27.621Z,11.90
2023-05-11T18:15:56.003Z,12.73
2023-05-11T18:18:22.724Z,12.25
2023-05-11T18:20:49.264Z,12.88
2023-05-11T18:23:15.876Z,12.77
2023-05-11T18:25:42.612Z,11.63
2023-05-11T18:28:09.152Z,9.82
2023-05-11T18:30:35.675Z,8.98
2023-05-11T18:33:02.327Z,8.43
2023-05-11T18:35:29.356Z,8.82
2023-05-11T18:37:55.904Z,9.65
2023-05-11T18:40:22.563Z,9.48
2023-05-11T18:42:49.128Z,9.13
2023-05-11T18:45:17.505Z,10.00
2023-05-11T18:47:44.291Z,10.98
2023-05-11T18:50:11.301Z,10.43
2023-05-11T18:52:37.897Z,10.73
2023-05-11T18:55:04.601Z,11.23
2023-05-11T18:57:31.113Z,12.07
2023-05-11T18:59:57.705Z,12.82
2023-05-11T19:02:24.300Z,13.25
2023-05-11T19:04:50.893Z,13.68
2023-05-11T19:07:19.878Z,13.05
2023-05-11T19:09:46.705Z,13.93
2023-05-11T19:12:13.274Z,14.65
2023-05-11T19:14:39.869Z,14.13
2023-05-11T19:17:06.482Z,13.82
2023-05-11T19:19:33.076Z,15.40
2023-05-11T19:21:59.849Z,14.38
2023-05-11T19:24:26.550Z,15.95
2023-05-11T19:27:05.723Z,16.02
2023-05-11T19:29:33.633Z,15.80
2023-05-11T19:32:00.298Z,16.17
2023-05-11T19:34:26.944Z,16.48
2023-05-11T19:36:53.426Z,17.33
2023-05-11T19:39:20.005Z,17.25
2023-05-11T19:41:46.535Z,17.52
2023-05-11T19:44:13.054Z,18.98
2023-05-11T19:46:39.815Z,18.02
2023-05-11T19:49:06.422Z,19.48
2023-05-11T19:51:32.970Z,18.73
2023-05-11T19:53:59.870Z,18.85
2023-05-11T19:56:26.389Z,17.00
2023-05-11T19:58:52.891Z,17.98
2023-05-11T20:01:19.457Z,17.23
2023-05-11T20:03:46.085Z,17.25
2023-05-11T20:06:12.671Z,18.60
2023-05-11T20:08:39.203Z,19.27
2023-05-11T20:11:05.740Z,17.88
2023-05-11T20:13:32.343Z,18.67
2023-05-11T20:15:58.967Z,20.05
2023-05-11T20:18:25.616Z,19.10
2023-05-11T20:20:52.887Z,17.88
2023-05-11T20:23:19.441Z,18.75
2023-05-11T20:25:45.971Z,17.42
2023-05-11T20:28:12.537Z,17.48
2023-05-11T20:30:39.080Z,17.00
2023-05-11T20:35:35.052Z,19.17
2023-05-11T20:38:01.609Z,17.73
2023-05-11T20:40:28.215Z,16.58
2023-05-11T20:42:54.772Z,16.92
2023-05-11T20:45:21.446Z,18.10
2023-05-11T20:47:48.086Z,16.40
2023-05-11T20:50:15.200Z,17.17
2023-05-11T20:52:41.715Z,17.08
2023-05-11T20:55:08.457Z,18.10
2023-05-11T20:57:35.000Z,17.92
2023-05-11T21:02:31.265Z,18.42
2023-05-11T21:04:57.811Z,18.27
2023-05-11T21:07:24.343Z,16.25
2023-05-11T21:09:50.909Z,16.77
2023-05-11T21:12:17.411Z,17.42
2023-05-11T21:14:43.927Z,16.85
2023-05-11T21:17:10.576Z,18.00
2023-05-11T21:19:37.296Z,17.33
2023-05-11T21:22:03.927Z,16.25
2023-05-11T21:24:30.546Z,16.27
2023-05-11T21:26:57.101Z,16.58
2023-05-11T21:29:23.599Z,16.70
2023-05-11T21:31:50.139Z,16.70
2023-05-11T21:34:16.686Z,18.25
2023-05-11T21:36:43.323Z,15.43
2023-05-11T21:39:09.853Z,16.23
2023-05-11T21:41:36.339Z,17.48
2023-05-11T21:44:02.873Z,17.05
2023-05-11T21:46:29.499Z,16.48
2023-05-11T21:48:56.107Z,15.73
2023-05-11T21:51:22.614Z,16.20
2023-05-11T21:53:49.141Z,15.02
2023-05-11T21:56:15.691Z,14.93
2023-05-11T21:58:42.219Z,17.27
2023-05-11T22:01:08.792Z,17.02
2023-05-11T22:03:35.397Z,16.63
2023-05-11T22:06:02.018Z,15.77
2023-05-11T22:08:28.569Z,17.17
2023-05-11T22:10:55.127Z,17.45
2023-05-11T22:13:21.687Z,17.35
2023-05-11T22:15:48.232Z,17.30
2023-05-11T22:18:14.757Z,16.92
2023-05-11T22:20:41.324Z,15.90
2023-05-11T22:23:07.929Z,16.05
2023-05-11T22:25:34.406Z,15.57
2023-05-11T22:28:00.949Z,16.20
2023-05-11T22:30:27.504Z,15.88
2023-05-11T22:32:54.296Z,14.88
2023-05-11T22:35:20.916Z,16.58
2023-05-11T22:37:47.477Z,16.70
2023-05-11T22:40:14.261Z,17.35
2023-05-11T22:42:40.756Z,17.88
2023-05-11T22:45:07.871Z,16.55
2023-05-11T22:47:34.393Z,18.33
2023-05-11T22:50:00.899Z,17.58
2023-05-11T22:52:27.406Z,17.92
2023-05-11T22:54:54.521Z,17.08
2023-05-11T22:57:21.232Z,17.00
2023-05-11T22:59:47.724Z,19.17
2023-05-11T23:02:14.289Z,18.25
2023-05-11T23:04:40.805Z,17.45
2023-05-11T23:07:07.273Z,18.55
2023-05-11T23:09:34.523Z,19.05
2023-05-11T23:12:01.012Z,18.42
2023-05-11T23:14:27.481Z,18.98
2023-05-11T23:16:54.004Z,18.98
2023-05-11T23:19:20.567Z,18.27
2023-05-11T23:21:47.080Z,19.75
2023-05-11T23:24:13.587Z,20.02
2023-05-11T23:26:40.146Z,18.73
2023-05-11T23:29:06.667Z,17.83
2023-05-11T23:31:33.211Z,18.85
2023-05-11T23:34:00.476Z,17.75
2023-05-11T23:36:27.035Z,19.05
2023-05-11T23:38:53.728Z,18.10
2023-05-11T23:41:20.383Z,18.92
2023-05-11T23:43:46.921Z,18.83
2023-05-11T23:46:13.435Z,19.42
2023-05-11T23:48:39.993Z,19.20
2023-05-11T23:51:06.497Z,19.98
2023-05-11T23:53:33.040Z,19.77
2023-05-11T23:55:59.551Z,19.95
2023-05-11T23:58:26.031Z,19.83
